createdAt,value
2023-04-29T00:01:10.805Z,2.87
2023-04-29T00:03:38.860Z,2.43
2023-04-29T00:06:08.975Z,2.43
2023-04-29T00:08:36.947Z,2.80
2023-04-29T00:11:04.848Z,2.57
2023-04-29T00:13:32.827Z,4.03
2023-04-29T00:16:00.727Z,2.37
2023-04-29T00:18:28.611Z,3.93
2023-04-29T00:20:56.567Z,2.03
2023-04-29T00:23:25.868Z,3.63
2023-04-29T00:25:54.044Z,2.53
2023-04-29T00:34:51.605Z,2.93
2023-04-29T00:37:19.531Z,2.60
2023-04-29T00:39:49.240Z,5.20
2023-04-29T00:42:17.630Z,2.43
2023-04-29T00:44:45.691Z,2.40
2023-04-29T00:47:13.898Z,4.13
2023-04-29T00:49:42.029Z,4.23
2023-04-29T00:52:12.474Z,7.40
2023-04-29T00:54:40.938Z,3.73
2023-04-29T00:57:10.509Z,5.57
2023-04-29T00:59:39.588Z,3.73
2023-04-29T01:02:07.537Z,2.83
2023-04-29T01:04:35.598Z,3.07
2023-04-29T01:07:14.469Z,2.37
2023-04-29T01:10:02.789Z,2.87
2023-04-29T01:12:39.889Z,2.97
2023-04-29T01:15:18.037Z,2.70
2023-04-29T01:17:51.782Z,3.57
2023-04-29T01:20:22.275Z,3.63
2023-04-29T01:22:50.272Z,2.40
2023-04-29T01:25:19.945Z,2.43
2023-04-29T01:28:17.522Z,2.20
2023-04-29T01:30:51.791Z,2.63
2023-04-29T01:33:30.649Z,3.63
2023-04-29T01:36:09.281Z,3.70
2023-04-29T01:38:43.059Z,2.63
2023-04-29T01:41:17.290Z,2.67
2023-04-29T01:43:52.449Z,2.80
2023-04-29T01:46:23.740Z,2.50
2023-04-29T01:48:56.047Z,3.10
2023-04-29T01:51:24.746Z,4.67
2023-04-29T01:53:52.934Z,2.77
2023-04-29T01:56:22.499Z,2.87
2023-04-29T01:59:03.860Z,2.73
2023-04-29T02:01:58.876Z,3.97
2023-04-29T02:04:27.678Z,3.80
2023-04-29T02:06:55.916Z,3.27
2023-04-29T02:09:24.061Z,3.27
2023-04-29T02:11:57.556Z,4.07
2023-04-29T02:14:25.646Z,2.70
2023-04-29T02:16:53.737Z,3.90
2023-04-29T02:19:23.100Z,2.80
2023-04-29T02:21:53.786Z,3.10
2023-04-29T02:24:22.132Z,2.10
2023-04-29T02:26:50.085Z,5.33
2023-04-29T02:29:19.427Z,3.27
2023-04-29T02:31:47.529Z,5.03
2023-04-29T02:34:15.579Z,3.27
2023-04-29T02:36:43.549Z,2.20
2023-04-29T02:39:11.452Z,3.80
2023-04-29T02:41:39.345Z,5.13
2023-04-29T02:44:07.219Z,3.60
2023-04-29T02:46:37.689Z,4.30
2023-04-29T02:49:05.872Z,3.07
2023-04-29T02:51:34.089Z,3.40
2023-04-29T02:54:02.347Z,3.70
2023-04-29T02:56:30.439Z,3.40
2023-04-29T02:58:58.308Z,2.30
2023-04-29T03:01:26.338Z,2.83
2023-04-29T03:03:56.254Z,2.43
2023-04-29T03:06:24.504Z,3.47
2023-04-29T03:08:52.646Z,3.23
2023-04-29T03:11:21.279Z,4.07
2023-04-29T03:13:49.204Z,4.37
2023-04-29T03:16:17.834Z,4.53
2023-04-29T03:18:46.160Z,4.00
2023-04-29T03:21:15.436Z,3.53
2023-04-29T03:23:43.357Z,2.43
2023-04-29T03:26:14.855Z,3.13
2023-04-29T03:28:42.943Z,3.53
2023-04-29T03:31:12.159Z,2.50
2023-04-29T03:33:40.210Z,4.77
2023-04-29T03:36:08.732Z,2.57
2023-04-29T03:38:53.327Z,4.10
2023-04-29T03:41:23.962Z,2.40
2023-04-29T03:43:52.433Z,3.57
2023-04-29T03:46:20.501Z,3.23
2023-04-29T03:48:48.452Z,2.93
2023-04-29T03:51:16.612Z,2.47
2023-04-29T03:53:45.255Z,3.70
2023-04-29T03:56:15.473Z,4.00
2023-04-29T03:58:44.924Z,3.40
2023-04-29T04:01:13.431Z,4.50
2023-04-29T04:03:45.600Z,2.93
2023-04-29T04:06:13.617Z,2.73
2023-04-29T04:08:41.970Z,5.33
2023-04-29T04:11:16.037Z,3.07
2023-04-29T04:13:47.918Z,4.23
2023-04-29T04:16:17.702Z,4.07
2023-04-29T04:18:46.012Z,4.33
2023-04-29T04:21:14.447Z,4.53
2023-04-29T04:23:46.784Z,5.53
2023-04-29T04:26:21.563Z,3.77
2023-04-29T04:29:10.526Z,5.60
2023-04-29T04:31:48.324Z,3.77
2023-04-29T04:34:18.773Z,6.63
2023-04-29T04:36:49.273Z,4.77
2023-04-29T04:39:17.246Z,5.10
2023-04-29T04:41:46.958Z,3.07
2023-04-29T04:44:15.204Z,4.00
2023-04-29T04:46:52.995Z,2.80
2023-04-29T04:49:39.732Z,4.80
2023-04-29T04:52:08.180Z,3.57
2023-04-29T04:54:36.442Z,5.20
2023-04-29T04:57:16.998Z,4.20
2023-04-29T04:59:47.745Z,3.60
2023-04-29T05:02:16.554Z,4.07
2023-04-29T05:04:44.826Z,4.90
2023-04-29T05:07:15.447Z,4.67
2023-04-29T05:10:15.802Z,3.13
2023-04-29T05:12:50.760Z,3.30
2023-04-29T05:15:20.456Z,3.97
2023-04-29T05:17:51.486Z,4.47
2023-04-29T05:20:20.422Z,4.63
2023-04-29T05:22:48.410Z,5.57
2023-04-29T05:25:17.305Z,4.97
2023-04-29T05:27:46.039Z,4.00
2023-04-29T05:30:19.144Z,4.30
2023-04-29T05:32:48.761Z,6.63
2023-04-29T05:35:18.990Z,4.83
2023-04-29T05:37:47.581Z,5.13
2023-04-29T05:40:34.302Z,6.70
2023-04-29T05:43:37.937Z,5.03
2023-04-29T05:46:07.911Z,4.33
2023-04-29T05:48:36.236Z,5.30
2023-04-29T05:51:04.412Z,4.47
2023-04-29T05:53:35.820Z,7.50
2023-04-29T05:56:06.685Z,6.53
2023-04-29T05:58:34.610Z,5.30
2023-04-29T06:01:03.069Z,4.10
2023-04-29T06:03:34.543Z,3.80
2023-04-29T06:06:26.161Z,6.37
2023-04-29T06:09:19.900Z,4.00
2023-04-29T06:11:55.261Z,5.57
2023-04-29T06:14:23.424Z,4.20
2023-04-29T06:16:52.234Z,4.47
2023-04-29T06:19:21.494Z,5.43
2023-04-29T06:21:50.458Z,3.60
2023-04-29T06:24:18.787Z,3.70
2023-04-29T06:26:47.339Z,4.53
2023-04-29T06:29:15.388Z,4.87
2023-04-29T06:31:43.453Z,5.67
2023-04-29T06:34:12.484Z,5.27
2023-04-29T06:36:52.543Z,6.57
2023-04-29T06:39:34.898Z,4.77
2023-04-29T06:42:23.372Z,4.20
2023-04-29T06:45:10.411Z,4.93
2023-04-29T06:47:41.745Z,3.53
2023-04-29T06:50:26.044Z,4.03
2023-04-29T06:52:55.570Z,3.20
2023-04-29T06:55:23.551Z,3.13
2023-04-29T06:57:51.558Z,2.83
2023-04-29T07:00:21.155Z,2.50
2023-04-29T07:02:49.229Z,3.03
2023-04-29T07:05:17.345Z,3.10
2023-04-29T07:07:45.355Z,2.20
2023-04-29T07:10:14.646Z,22.40
2023-04-29T07:12:42.557Z,3.23
2023-04-29T07:15:11.230Z,4.53
2023-04-29T07:17:39.440Z,3.87
2023-04-29T07:20:08.716Z,3.40
2023-04-29T07:22:37.234Z,2.23
2023-04-29T07:25:05.724Z,4.00
2023-04-29T07:27:35.959Z,2.60
2023-04-29T07:30:04.392Z,3.00
2023-04-29T07:32:32.729Z,3.83
2023-04-29T07:35:04.675Z,2.23
2023-04-29T07:37:32.644Z,4.17
2023-04-29T07:40:00.835Z,2.40
2023-04-29T07:42:29.099Z,2.87
2023-04-29T07:44:58.713Z,2.97
2023-04-29T07:47:27.160Z,4.43
2023-04-29T07:49:55.198Z,4.03
2023-04-29T07:52:23.333Z,2.47
2023-04-29T07:54:51.670Z,3.50
2023-04-29T07:57:19.767Z,2.40
2023-04-29T07:59:47.686Z,5.70
2023-04-29T08:02:17.893Z,2.13
2023-04-29T08:04:45.949Z,2.30
2023-04-29T08:07:14.827Z,3.00
2023-04-29T08:09:42.876Z,2.17
2023-04-29T08:12:11.933Z,3.17
2023-04-29T08:14:41.709Z,2.37
2023-04-29T08:17:09.918Z,3.10
2023-04-29T08:19:39.307Z,2.23
2023-04-29T08:22:07.354Z,2.77
2023-04-29T08:24:35.991Z,2.50
2023-04-29T08:27:04.497Z,2.53
2023-04-29T08:29:33.478Z,2.97
2023-04-29T08:32:01.458Z,2.30
2023-04-29T08:34:29.465Z,4.40
2023-04-29T08:36:59.775Z,2.43
2023-04-29T08:39:29.241Z,2.30
2023-04-29T08:41:59.304Z,2.73
2023-04-29T08:44:27.975Z,3.23
2023-04-29T08:46:57.064Z,2.87
2023-04-29T08:49:25.011Z,2.67
2023-04-29T08:51:53.091Z,3.23
2023-04-29T08:54:22.488Z,3.67
2023-04-29T08:56:51.208Z,2.93
2023-04-29T08:59:21.137Z,3.23
2023-04-29T09:01:52.917Z,3.83
2023-04-29T09:04:31.807Z,4.47
2023-04-29T09:07:01.005Z,4.90
2023-04-29T09:09:30.959Z,3.73
2023-04-29T09:11:59.020Z,2.80
2023-04-29T09:14:27.380Z,2.90
2023-04-29T09:16:55.459Z,3.17
2023-04-29T09:19:34.735Z,3.07
2023-04-29T09:22:03.524Z,2.90
2023-04-29T09:24:33.019Z,4.87
2023-04-29T09:27:03.080Z,3.23
2023-04-29T09:29:32.914Z,3.37
2023-04-29T09:32:00.982Z,2.83
2023-04-29T09:34:35.660Z,3.13
2023-04-29T09:37:03.654Z,3.43
2023-04-29T09:39:40.869Z,3.07
2023-04-29T09:42:09.593Z,3.93
2023-04-29T09:44:37.674Z,3.03
2023-04-29T09:47:08.471Z,3.80
2023-04-29T09:49:41.074Z,3.30
2023-04-29T09:52:10.937Z,7.20
2023-04-29T09:54:42.267Z,2.80
2023-04-29T09:57:11.636Z,2.83
2023-04-29T09:59:41.167Z,2.57
2023-04-29T10:02:15.480Z,2.67
2023-04-29T10:04:47.228Z,2.60
2023-04-29T10:07:17.385Z,2.50
2023-04-29T10:09:48.279Z,2.43
2023-04-29T10:12:18.041Z,2.50
2023-04-29T10:14:51.997Z,3.00
2023-04-29T10:17:25.879Z,3.00
2023-04-29T10:19:59.382Z,2.50
2023-04-29T10:22:34.707Z,4.23
2023-04-29T10:25:06.826Z,5.07
2023-04-29T10:27:36.539Z,4.50
2023-04-29T10:30:05.870Z,3.03
2023-04-29T10:32:49.877Z,2.30
2023-04-29T10:35:22.667Z,3.53
2023-04-29T10:37:51.242Z,3.00
2023-04-29T10:40:25.731Z,4.17
2023-04-29T10:42:54.670Z,4.00
2023-04-29T10:45:24.342Z,3.53
2023-04-29T10:48:11.948Z,3.20
2023-04-29T10:51:03.609Z,3.40
2023-04-29T10:53:32.041Z,2.90
2023-04-29T10:56:10.855Z,3.30
2023-04-29T10:58:45.939Z,2.40
2023-04-29T11:01:15.369Z,2.60
2023-04-29T11:03:48.740Z,3.07
2023-04-29T11:06:17.544Z,2.47
2023-04-29T11:08:45.446Z,2.87
2023-04-29T11:11:16.148Z,4.50
2023-04-29T11:13:47.852Z,2.30
2023-04-29T11:16:15.848Z,3.07
2023-04-29T11:19:06.398Z,2.23
2023-04-29T11:21:35.903Z,1.73
2023-04-29T11:24:06.143Z,1.70
2023-04-29T11:26:36.155Z,2.07
2023-04-29T11:29:05.768Z,2.77
2023-04-29T11:31:34.512Z,3.57
2023-04-29T11:34:05.101Z,2.47
2023-04-29T11:36:33.483Z,2.77
2023-04-29T11:39:02.173Z,2.30
2023-04-29T11:41:30.190Z,2.50
2023-04-29T11:44:01.349Z,3.83
2023-04-29T11:46:32.215Z,3.30
2023-04-29T11:49:01.373Z,3.37
2023-04-29T11:51:29.523Z,4.00
2023-04-29T11:53:58.892Z,4.67
2023-04-29T11:56:26.982Z,4.83
2023-04-29T11:59:01.314Z,4.40
2023-04-29T12:01:29.314Z,3.60
2023-04-29T12:04:00.972Z,5.43
2023-04-29T12:06:30.643Z,3.77
2023-04-29T12:09:00.568Z,3.77
2023-04-29T12:11:28.977Z,5.77
2023-04-29T12:13:57.444Z,4.30
2023-04-29T12:16:29.245Z,4.20
2023-04-29T12:18:58.687Z,4.53
2023-04-29T12:21:27.443Z,4.43
2023-04-29T12:23:55.997Z,4.37
2023-04-29T12:26:24.846Z,4.33
2023-04-29T12:28:55.596Z,4.40
2023-04-29T12:31:24.301Z,4.53
2023-04-29T12:33:56.336Z,6.97
2023-04-29T12:36:24.522Z,5.37
2023-04-29T12:38:54.711Z,6.40
2023-04-29T12:41:37.864Z,5.70
2023-04-29T12:44:07.319Z,7.23
2023-04-29T12:46:39.543Z,6.37
2023-04-29T12:49:09.586Z,5.97
2023-04-29T12:51:37.723Z,5.57
2023-04-29T12:54:07.255Z,5.57
2023-04-29T12:56:35.465Z,6.30
2023-04-29T12:59:07.555Z,6.07
2023-04-29T13:01:35.896Z,6.37
2023-04-29T13:04:21.326Z,5.03
2023-04-29T13:06:49.317Z,5.20
2023-04-29T13:09:18.835Z,5.57
2023-04-29T13:11:47.564Z,6.40
2023-04-29T13:14:16.352Z,4.73
2023-04-29T13:16:44.560Z,7.83
2023-04-29T13:19:28.184Z,5.90
2023-04-29T13:22:02.693Z,6.23
2023-04-29T13:24:30.666Z,6.20
2023-04-29T13:26:58.728Z,8.80
2023-04-29T13:29:31.215Z,7.20
2023-04-29T13:32:03.896Z,5.97
2023-04-29T13:34:41.017Z,6.00
2023-04-29T13:37:12.018Z,5.40
2023-04-29T13:39:40.644Z,5.28
2023-04-29T13:42:10.449Z,5.17
2023-04-29T13:44:51.742Z,5.20
2023-04-29T13:47:31.693Z,8.97
2023-04-29T13:53:19.325Z,6.03
2023-04-29T14:01:01.849Z,8.10
2023-04-29T14:03:32.536Z,7.27
2023-04-29T14:06:37.399Z,9.73
2023-04-29T14:09:14.431Z,6.70
2023-04-29T14:11:48.189Z,5.93
2023-04-29T14:14:18.005Z,8.67
2023-04-29T14:16:50.483Z,5.80
2023-04-29T14:19:24.324Z,8.17
2023-04-29T14:21:55.552Z,6.13
2023-04-29T14:24:25.465Z,5.67
2023-04-29T14:26:53.458Z,8.13
2023-04-29T14:29:27.343Z,7.87
2023-04-29T14:31:55.645Z,7.40
2023-04-29T14:34:27.064Z,8.67
2023-04-29T14:36:59.843Z,10.03
2023-04-29T14:39:32.301Z,7.00
2023-04-29T14:42:04.381Z,7.43
2023-04-29T14:44:39.550Z,6.30
2023-04-29T14:47:12.868Z,6.60
2023-04-29T14:49:46.051Z,6.20
2023-04-29T14:52:13.943Z,7.33
2023-04-29T14:54:43.198Z,6.70
2023-04-29T14:57:11.886Z,6.27
2023-04-29T14:59:39.730Z,6.63
2023-04-29T15:02:08.013Z,7.07
2023-04-29T15:04:36.108Z,7.70
2023-04-29T15:07:04.150Z,6.53
2023-04-29T15:09:32.144Z,7.30
2023-04-29T15:12:02.013Z,8.03
2023-04-29T15:14:29.915Z,7.50
2023-04-29T15:16:58.048Z,8.13
2023-04-29T15:19:26.324Z,7.13
2023-04-29T15:21:54.314Z,7.00
2023-04-29T15:24:22.191Z,6.47
2023-04-29T15:26:51.890Z,6.93
2023-04-29T15:29:21.357Z,7.37
2023-04-29T15:31:49.384Z,8.70
2023-04-29T15:34:17.486Z,6.37
2023-04-29T15:36:45.424Z,7.47
2023-04-29T15:39:13.306Z,7.87
2023-04-29T15:41:41.387Z,8.13
2023-04-29T15:44:09.835Z,7.87
2023-04-29T15:46:39.184Z,8.83
2023-04-29T15:49:07.319Z,8.17
2023-04-29T15:51:35.142Z,6.50
2023-04-29T15:54:04.990Z,6.20
2023-04-29T15:56:32.917Z,10.03
2023-04-29T15:59:00.862Z,6.80
2023-04-29T16:01:29.003Z,8.83
2023-04-29T16:03:58.551Z,7.30
2023-04-29T16:06:27.534Z,8.03
2023-04-29T16:08:56.713Z,7.17
2023-04-29T16:11:24.801Z,7.33
2023-04-29T16:13:52.748Z,6.57
2023-04-29T16:16:21.854Z,7.10
2023-04-29T16:18:49.806Z,6.83
2023-04-29T16:21:19.195Z,7.40
2023-04-29T16:23:47.204Z,6.67
2023-04-29T16:26:15.155Z,5.90
2023-04-29T16:28:43.130Z,8.20
2023-04-29T16:31:12.870Z,8.20
2023-04-29T16:33:41.738Z,6.53
2023-04-29T16:36:09.647Z,6.37
2023-04-29T16:38:39.031Z,8.17
2023-04-29T16:41:07.379Z,8.53
2023-04-29T16:43:35.351Z,7.47
2023-04-29T16:46:03.895Z,6.07
2023-04-29T16:48:32.128Z,6.57
2023-04-29T16:51:00.148Z,6.77
2023-04-29T16:53:28.146Z,8.90
2023-04-29T16:55:57.576Z,5.80
2023-04-29T16:58:25.462Z,7.27
2023-04-29T17:00:55.205Z,5.90
2023-04-29T17:03:23.286Z,6.43
2023-04-29T17:05:51.267Z,7.40
2023-04-29T17:08:19.327Z,6.83
2023-04-29T17:10:47.357Z,6.77
2023-04-29T17:13:16.701Z,5.90
2023-04-29T17:15:44.557Z,6.47
2023-04-29T17:18:12.689Z,6.00
2023-04-29T17:20:40.853Z,9.40
2023-04-29T17:23:08.824Z,9.63
2023-04-29T17:25:38.466Z,8.77
2023-04-29T17:28:07.066Z,5.53
2023-04-29T17:30:36.309Z,7.40
2023-04-29T17:33:05.949Z,13.20
2023-04-29T17:35:34.531Z,9.03
2023-04-29T17:38:02.642Z,5.77
2023-04-29T17:40:30.821Z,7.57
2023-04-29T17:42:58.763Z,5.13
2023-04-29T17:45:26.757Z,8.57
2023-04-29T17:47:56.080Z,6.67
2023-04-29T17:50:24.148Z,7.17
2023-04-29T17:52:52.110Z,5.53
2023-04-29T17:55:20.404Z,4.37
2023-04-29T17:57:48.289Z,6.13
2023-04-29T18:00:16.308Z,4.37
2023-04-29T18:02:44.349Z,4.87
2023-04-29T18:05:13.738Z,5.43
2023-04-29T18:07:41.638Z,6.67
2023-04-29T18:10:10.409Z,6.80
2023-04-29T18:12:38.375Z,4.93
2023-04-29T18:15:08.957Z,5.10
2023-04-29T18:17:37.062Z,6.17
2023-04-29T18:20:06.268Z,4.90
2023-04-29T18:22:35.482Z,6.20
2023-04-29T18:25:03.417Z,6.23
2023-04-29T18:27:31.267Z,7.47
2023-04-29T18:29:59.199Z,7.63
2023-04-29T18:32:27.154Z,7.00
2023-04-29T18:34:56.169Z,6.40
2023-04-29T18:37:24.150Z,6.87
2023-04-29T18:39:53.556Z,6.07
2023-04-29T18:42:21.541Z,8.10
2023-04-29T18:44:51.200Z,7.37
2023-04-29T18:47:20.144Z,6.47
2023-04-29T18:49:48.196Z,7.17
2023-04-29T18:52:16.054Z,5.97
2023-04-29T18:54:43.960Z,5.67
2023-04-29T18:57:13.157Z,6.40
2023-04-29T18:59:41.348Z,5.40
2023-04-29T19:02:09.310Z,5.40
2023-04-29T19:04:37.338Z,6.17
2023-04-29T19:07:05.849Z,6.83
2023-04-29T19:09:33.876Z,5.73
2023-04-29T19:12:04.490Z,6.47
2023-04-29T19:14:34.186Z,8.43
2023-04-29T19:17:02.326Z,6.03
2023-04-29T19:19:30.824Z,7.17
2023-04-29T19:21:58.838Z,9.30
2023-04-29T19:24:26.844Z,8.43
2023-04-29T19:26:54.732Z,7.80
2023-04-29T19:29:22.589Z,8.07
2023-04-29T19:31:52.591Z,5.90
2023-04-29T19:34:20.647Z,7.67
2023-04-29T19:36:48.652Z,7.23
2023-04-29T19:39:16.762Z,6.40
2023-04-29T19:41:44.914Z,8.77
2023-04-29T19:44:13.073Z,8.40
2023-04-29T19:46:41.579Z,9.87
2023-04-29T19:49:13.383Z,8.00
2023-04-29T19:51:42.379Z,8.53
2023-04-29T19:54:10.541Z,8.33
2023-04-29T19:56:38.444Z,7.13
2023-04-29T19:59:06.671Z,9.20
2023-04-29T20:01:34.785Z,6.97
2023-04-29T20:04:03.023Z,8.30
2023-04-29T20:06:34.983Z,6.93
2023-04-29T20:09:03.053Z,7.20
2023-04-29T20:11:30.925Z,8.87
2023-04-29T20:13:58.861Z,8.83
2023-04-29T20:16:28.133Z,9.10
2023-04-29T20:18:57.040Z,9.27
2023-04-29T20:21:24.919Z,8.73
2023-04-29T20:23:54.349Z,7.53
2023-04-29T20:26:22.680Z,8.77
2023-04-29T20:28:50.647Z,8.20
2023-04-29T20:31:18.504Z,10.53
2023-04-29T20:33:46.374Z,10.80
2023-04-29T20:36:14.264Z,9.87
2023-04-29T20:38:42.370Z,7.93
2023-04-29T20:41:11.622Z,8.47
2023-04-29T20:43:39.554Z,8.77
2023-04-29T20:46:07.635Z,7.97
2023-04-29T20:48:35.637Z,8.07
2023-04-29T20:51:03.993Z,7.53
2023-04-29T20:53:32.181Z,8.77
2023-04-29T20:56:00.451Z,8.97
2023-04-29T20:58:29.736Z,8.23
2023-04-29T21:00:57.630Z,9.07
2023-04-29T21:03:26.027Z,8.40
2023-04-29T21:05:54.876Z,10.50
2023-04-29T21:08:23.050Z,9.47
2023-04-29T21:10:51.075Z,9.43
2023-04-29T21:13:19.053Z,8.90
2023-04-29T21:15:48.351Z,9.47
2023-04-29T21:18:16.342Z,8.93
2023-04-29T21:20:44.280Z,8.53
2023-04-29T21:23:12.206Z,8.03
2023-04-29T21:25:40.077Z,7.23
2023-04-29T21:28:07.953Z,9.93
2023-04-29T21:30:36.384Z,8.50
2023-04-29T21:33:05.781Z,8.03
2023-04-29T21:35:33.777Z,9.10
2023-04-29T21:38:01.666Z,10.27
2023-04-29T21:40:29.712Z,8.33
2023-04-29T21:42:58.939Z,10.10
2023-04-29T21:45:26.936Z,6.93
2023-04-29T21:47:55.948Z,6.90
2023-04-29T21:50:25.337Z,8.80
2023-04-29T21:52:55.563Z,11.77
2023-04-29T21:55:23.653Z,7.90
2023-04-29T21:57:51.634Z,6.30
2023-04-29T22:00:32.858Z,7.73
2023-04-29T22:03:01.397Z,7.37
2023-04-29T22:05:31.251Z,6.77
2023-04-29T22:08:00.622Z,7.43
2023-04-29T22:10:28.675Z,8.00
2023-04-29T22:12:56.656Z,6.60
2023-04-29T22:15:28.879Z,7.53
2023-04-29T22:17:58.062Z,6.73
2023-04-29T22:20:26.725Z,5.50
2023-04-29T22:22:56.395Z,6.63
2023-04-29T22:25:24.287Z,6.67
2023-04-29T22:27:52.388Z,6.97
2023-04-29T22:30:20.771Z,6.80
2023-04-29T22:32:48.829Z,6.60
2023-04-29T22:35:17.111Z,4.83
2023-04-29T22:37:45.000Z,6.87
2023-04-29T22:40:15.135Z,6.00
2023-04-29T22:42:43.190Z,6.70
2023-04-29T22:45:12.696Z,6.43
2023-04-29T22:47:40.637Z,7.83
2023-04-29T22:50:10.096Z,5.70
2023-04-29T22:52:38.074Z,6.27
2023-04-29T22:55:06.990Z,5.20
2023-04-29T22:57:36.417Z,6.33
2023-04-29T23:00:04.569Z,6.43
2023-04-29T23:02:32.597Z,8.23
2023-04-29T23:05:00.908Z,6.17
2023-04-29T23:07:28.936Z,7.33
2023-04-29T23:09:56.978Z,13.00
2023-04-29T23:12:25.410Z,7.00
2023-04-29T23:14:54.821Z,6.23
2023-04-29T23:17:22.773Z,5.70
2023-04-29T23:19:50.658Z,5.10
2023-04-29T23:22:18.551Z,7.13
2023-04-29T23:24:46.813Z,6.43
2023-04-29T23:27:14.692Z,6.67
2023-04-29T23:29:42.610Z,7.03
2023-04-29T23:32:11.820Z,9.30
2023-04-29T23:34:39.788Z,7.53
2023-04-29T23:37:07.661Z,8.57
2023-04-29T23:39:35.621Z,7.97
2023-04-29T23:42:03.842Z,5.90
2023-04-29T23:44:31.709Z,7.57
2023-04-29T23:46:59.624Z,5.17
2023-04-29T23:49:28.894Z,5.63
2023-04-29T23:51:56.924Z,6.57
2023-04-29T23:54:24.801Z,7.80
2023-04-29T23:56:52.625Z,6.43
2023-04-29T23:59:20.662Z,5.47
